sensor_id;sensor_type;location;lat;lon;timestamp;pressure;altitude;pressure_sealevel;temperature;humidity
81909;BME280;71372;43.514;1.512;2023-11-21T00:00:21;100326.88;;;10.62;82.88
81909;BME280;71372;43.514;1.512;2023-11-21T00:02:47;100329.41;;;10.65;82.46
81909;BME280;71372;43.514;1.512;2023-11-21T00:05:13;100328.53;;;10.65;82.49
81909;BME280;71372;43.514;1.512;2023-11-21T00:07:40;100335.66;;;10.64;82.68
81909;BME280;71372;43.514;1.512;2023-11-21T00:10:08;100331.16;;;10.66;82.68
81909;BME280;71372;43.514;1.512;2023-11-21T00:12:34;100334.41;;;10.73;82.59
81909;BME280;71372;43.514;1.512;2023-11-21T00:15:01;100332.44;;;10.76;82.44
81909;BME280;71372;43.514;1.512;2023-11-21T00:17:27;100326.22;;;10.77;82.54
81909;BME280;71372;43.514;1.512;2023-11-21T00:19:53;100341.13;;;10.81;82.20
81909;BME280;71372;43.514;1.512;2023-11-21T00:22:19;100335.66;;;10.84;82.26
81909;BME280;71372;43.514;1.512;2023-11-21T00:24:46;100339.97;;;10.87;82.20
81909;BME280;71372;43.514;1.512;2023-11-21T00:27:13;100329.13;;;10.92;82.28
81909;BME280;71372;43.514;1.512;2023-11-21T00:29:40;100334.31;;;10.95;82.04
81909;BME280;71372;43.514;1.512;2023-11-21T00:32:06;100321.78;;;10.97;82.07
81909;BME280;71372;43.514;1.512;2023-11-21T00:34:32;100321.59;;;11.01;81.97
81909;BME280;71372;43.514;1.512;2023-11-21T00:36:58;100318.03;;;11.01;81.89
81909;BME280;71372;43.514;1.512;2023-11-21T00:39:24;100310.78;;;11.04;81.86
81909;BME280;71372;43.514;1.512;2023-11-21T00:41:52;100313.44;;;11.04;81.71
81909;BME280;71372;43.514;1.512;2023-11-21T00:44:18;100309.06;;;11.03;81.84
81909;BME280;71372;43.514;1.512;2023-11-21T00:46:44;100310.78;;;11.04;81.86
81909;BME280;71372;43.514;1.512;2023-11-21T00:49:10;100300.84;;;11.08;81.65
81909;BME280;71372;43.514;1.512;2023-11-21T00:51:36;100307.03;;;11.08;81.68
81909;BME280;71372;43.514;1.512;2023-11-21T00:54:02;100309.91;;;11.04;81.66
81909;BME280;71372;43.514;1.512;2023-11-21T00:56:28;100307.38;;;11.01;81.74
81909;BME280;71372;43.514;1.512;2023-11-21T00:58:54;100306.47;;;11.02;81.59
81909;BME280;71372;43.514;1.512;2023-11-21T01:01:21;100301.00;;;11.05;81.62
81909;BME280;71372;43.514;1.512;2023-11-21T01:03:50;100302.72;;;11.06;81.61
81909;BME280;71372;43.514;1.512;2023-11-21T01:06:16;100300.63;;;11.12;81.54
81909;BME280;71372;43.514;1.512;2023-11-21T01:08:45;100297.09;;;11.12;81.51
81909;BME280;71372;43.514;1.512;2023-11-21T01:11:12;100305.06;;;11.12;81.57
81909;BME280;71372;43.514;1.512;2023-11-21T01:13:39;100296.97;;;11.15;81.53
81909;BME280;71372;43.514;1.512;2023-11-21T01:16:05;100295.16;;;11.16;81.33
81909;BME280;71372;43.514;1.512;2023-11-21T01:18:35;100296.09;;;11.15;81.35
81909;BME280;71372;43.514;1.512;2023-11-21T01:21:01;100287.38;;;11.11;80.87
81909;BME280;71372;43.514;1.512;2023-11-21T01:23:27;100287.16;;;11.16;81.23
81909;BME280;71372;43.514;1.512;2023-11-21T01:25:55;100285.72;;;11.08;81.11
81909;BME280;71372;43.514;1.512;2023-11-21T01:28:21;100283.28;;;11.04;81.52
81909;BME280;71372;43.514;1.512;2023-11-21T01:30:48;100272.63;;;11.04;81.36
81909;BME280;71372;43.514;1.512;2023-11-21T01:33:14;100267.28;;;11.04;81.35
81909;BME280;71372;43.514;1.512;2023-11-21T01:35:42;100269.88;;;11.05;81.27
81909;BME280;71372;43.514;1.512;2023-11-21T01:38:08;100259.22;;;11.05;81.69
81909;BME280;71372;43.514;1.512;2023-11-21T01:40:35;100267.63;;;10.96;81.48
81909;BME280;71372;43.514;1.512;2023-11-21T01:43:01;100265.31;;;10.89;81.44
81909;BME280;71372;43.514;1.512;2023-11-21T01:45:29;100268.06;;;10.87;81.63
81909;BME280;71372;43.514;1.512;2023-11-21T01:48:00;100256.34;;;10.91;81.64
81909;BME280;71372;43.514;1.512;2023-11-21T01:50:26;100255.59;;;10.88;81.43
81909;BME280;71372;43.514;1.512;2023-11-21T01:52:53;100255.47;;;10.91;81.58
81909;BME280;71372;43.514;1.512;2023-11-21T01:55:20;100253.75;;;10.90;81.47
81909;BME280;71372;43.514;1.512;2023-11-21T01:57:46;100255.59;;;10.88;81.33
81909;BME280;71372;43.514;1.512;2023-11-21T02:00:13;100252.00;;;10.89;81.33
81909;BME280;71372;43.514;1.512;2023-11-21T02:02:45;100257.31;;;10.89;81.26
81909;BME280;71372;43.514;1.512;2023-11-21T02:05:16;100248.44;;;10.90;81.28
81909;BME280;71372;43.514;1.512;2023-11-21T02:07:46;100246.97;;;10.82;81.21
81909;BME280;71372;43.514;1.512;2023-11-21T02:10:15;100237.03;;;10.86;81.30
81909;BME280;71372;43.514;1.512;2023-11-21T02:12:42;100237.91;;;10.87;81.39
81909;BME280;71372;43.514;1.512;2023-11-21T02:15:10;100233.88;;;10.97;81.10
81909;BME280;71372;43.514;1.512;2023-11-21T02:17:41;100229.56;;;10.94;80.90
81909;BME280;71372;43.514;1.512;2023-11-21T02:20:13;100225.97;;;10.95;81.23
81909;BME280;71372;43.514;1.512;2023-11-21T02:22:56;100229.97;;;10.85;81.04
81909;BME280;71372;43.514;1.512;2023-11-21T02:25:26;100223.72;;;10.86;81.48
81909;BME280;71372;43.514;1.512;2023-11-21T02:27:56;100214.16;;;10.82;81.53
81909;BME280;71372;43.514;1.512;2023-11-21T02:30:23;100215.88;;;10.83;81.35
81909;BME280;71372;43.514;1.512;2023-11-21T02:32:51;100205.84;;;10.88;81.48
81909;BME280;71372;43.514;1.512;2023-11-21T02:35:19;100209.38;;;10.89;81.49
81909;BME280;71372;43.514;1.512;2023-11-21T02:37:48;100201.84;;;10.79;81.46
81909;BME280;71372;43.514;1.512;2023-11-21T02:40:14;100198.88;;;10.86;81.46
81909;BME280;71372;43.514;1.512;2023-11-21T02:42:44;100202.91;;;10.75;81.93
81909;BME280;71372;43.514;1.512;2023-11-21T02:45:10;100190.25;;;10.80;81.70
81909;BME280;71372;43.514;1.512;2023-11-21T02:47:39;100197.31;;;10.81;81.84
81909;BME280;71372;43.514;1.512;2023-11-21T02:50:05;100193.06;;;10.77;81.67
81909;BME280;71372;43.514;1.512;2023-11-21T02:52:34;100187.44;;;10.83;81.48
81909;BME280;71372;43.514;1.512;2023-11-21T02:55:02;100186.28;;;10.70;82.04
81909;BME280;71372;43.514;1.512;2023-11-21T02:57:28;100188.66;;;10.76;81.78
81909;BME280;71372;43.514;1.512;2023-11-21T02:59:54;100188.66;;;10.76;81.84
81909;BME280;71372;43.514;1.512;2023-11-21T03:02:21;100183.47;;;10.73;81.89
81909;BME280;71372;43.514;1.512;2023-11-21T03:04:47;100180.97;;;10.70;82.13
81909;BME280;71372;43.514;1.512;2023-11-21T03:07:17;100180.19;;;10.68;82.00
81909;BME280;71372;43.514;1.512;2023-11-21T03:09:47;100182.06;;;10.66;82.28
81909;BME280;71372;43.514;1.512;2023-11-21T03:12:13;100174.97;;;10.65;82.12
81909;BME280;71372;43.514;1.512;2023-11-21T03:14:39;100178.72;;;10.61;82.00
81909;BME280;71372;43.514;1.512;2023-11-21T03:17:05;100175.44;;;10.56;82.61
81909;BME280;71372;43.514;1.512;2023-11-21T03:19:32;100176.41;;;10.53;82.07
81909;BME280;71372;43.514;1.512;2023-11-21T03:21:58;100176.41;;;10.53;81.98
81909;BME280;71372;43.514;1.512;2023-11-21T03:24:24;100171.53;;;10.44;82.52
81909;BME280;71372;43.514;1.512;2023-11-21T03:26:52;100164.34;;;10.46;82.66
81909;BME280;71372;43.514;1.512;2023-11-21T03:29:18;100176.00;;;10.44;82.40
81909;BME280;71372;43.514;1.512;2023-11-21T03:31:44;100160.13;;;10.41;82.40
81909;BME280;71372;43.514;1.512;2023-11-21T03:34:15;100154.81;;;10.41;82.23
81909;BME280;71372;43.514;1.512;2023-11-21T03:36:42;100162.16;;;10.36;82.30
81909;BME280;71372;43.514;1.512;2023-11-21T03:39:07;100168.75;;;10.27;82.78
81909;BME280;71372;43.514;1.512;2023-11-21T03:41:33;100162.38;;;10.31;83.07
81909;BME280;71372;43.514;1.512;2023-11-21T03:43:59;100159.16;;;10.43;82.27
81909;BME280;71372;43.514;1.512;2023-11-21T03:46:26;100160.03;;;10.44;82.45
81909;BME280;71372;43.514;1.512;2023-11-21T03:48:51;100159.88;;;10.47;82.35
81909;BME280;71372;43.514;1.512;2023-11-21T03:51:17;100161.44;;;10.51;82.81
81909;BME280;71372;43.514;1.512;2023-11-21T03:53:43;100161.97;;;10.59;82.29
81909;BME280;71372;43.514;1.512;2023-11-21T03:56:09;100163.91;;;10.56;82.11
81909;BME280;71372;43.514;1.512;2023-11-21T03:58:35;100161.59;;;10.48;82.64
81909;BME280;71372;43.514;1.512;2023-11-21T04:01:01;100151.75;;;10.50;82.19
81909;BME280;71372;43.514;1.512;2023-11-21T04:03:27;100156.44;;;10.45;82.74
81909;BME280;71372;43.514;1.512;2023-11-21T04:05:53;100156.19;;;10.31;82.23
81909;BME280;71372;43.514;1.512;2023-11-21T04:08:19;100149.19;;;10.28;82.25
81909;BME280;71372;43.514;1.512;2023-11-21T04:10:45;100153.66;;;10.28;82.31
81909;BME280;71372;43.514;1.512;2023-11-21T04:13:11;100147.69;;;10.22;82.54
81909;BME280;71372;43.514;1.512;2023-11-21T04:15:37;100151.41;;;10.18;82.43
81909;BME280;71372;43.514;1.512;2023-11-21T04:18:03;100141.81;;;10.14;82.35
81909;BME280;71372;43.514;1.512;2023-11-21T04:20:28;100144.41;;;10.16;82.59
81909;BME280;71372;43.514;1.512;2023-11-21T04:22:54;100139.50;;;10.07;82.69
81909;BME280;71372;43.514;1.512;2023-11-21T04:25:20;100144.16;;;10.02;82.72
81909;BME280;71372;43.514;1.512;2023-11-21T04:27:46;100140.50;;;10.04;82.70
81909;BME280;71372;43.514;1.512;2023-11-21T04:30:13;100139.63;;;10.04;83.01
81909;BME280;71372;43.514;1.512;2023-11-21T04:32:39;100132.41;;;10.07;82.68
81909;BME280;71372;43.514;1.512;2023-11-21T04:35:05;100134.91;;;10.10;82.36
81909;BME280;71372;43.514;1.512;2023-11-21T04:37:32;100124.28;;;10.10;82.47
81909;BME280;71372;43.514;1.512;2023-11-21T04:39:58;100129.72;;;10.07;82.37
81909;BME280;71372;43.514;1.512;2023-11-21T04:42:23;100132.44;;;10.06;82.25
81909;BME280;71372;43.514;1.512;2023-11-21T04:44:49;100129.84;;;10.04;82.43
81909;BME280;71372;43.514;1.512;2023-11-21T04:47:15;100132.41;;;10.07;81.89
81909;BME280;71372;43.514;1.512;2023-11-21T04:49:42;100133.44;;;10.03;82.69
81909;BME280;71372;43.514;1.512;2023-11-21T04:52:09;100127.19;;;10.04;82.57
81909;BME280;71372;43.514;1.512;2023-11-21T04:54:35;100128.91;;;10.05;82.04
81909;BME280;71372;43.514;1.512;2023-11-21T04:57:02;100116.56;;;10.04;82.09
81909;BME280;71372;43.514;1.512;2023-11-21T04:59:28;100113.97;;;10.03;82.63
81909;BME280;71372;43.514;1.512;2023-11-21T05:01:54;100117.78;;;9.97;82.13
81909;BME280;71372;43.514;1.512;2023-11-21T05:04:20;100114.81;;;10.03;82.14
81909;BME280;71372;43.514;1.512;2023-11-21T05:06:48;100111.31;;;10.03;82.54
81909;BME280;71372;43.514;1.512;2023-11-21T05:09:14;100106.69;;;10.06;82.56
81909;BME280;71372;43.514;1.512;2023-11-21T05:11:41;100106.22;;;9.98;82.56
81909;BME280;71372;43.514;1.512;2023-11-21T05:14:07;100102.59;;;9.99;82.08
81909;BME280;71372;43.514;1.512;2023-11-21T05:16:34;100095.63;;;9.96;82.10
81909;BME280;71372;43.514;1.512;2023-11-21T05:19:01;100098.22;;;9.98;82.60
81909;BME280;71372;43.514;1.512;2023-11-21T05:21:27;100105.41;;;9.96;82.91
81909;BME280;71372;43.514;1.512;2023-11-21T05:23:54;100116.06;;;9.96;82.43
81909;BME280;71372;43.514;1.512;2023-11-21T05:26:19;100107.06;;;9.99;82.85
81909;BME280;71372;43.514;1.512;2023-11-21T05:28:46;100106.13;;;10.00;82.37
81909;BME280;71372;43.514;1.512;2023-11-21T05:31:12;100117.84;;;9.95;82.84
81909;BME280;71372;43.514;1.512;2023-11-21T05:33:38;100111.53;;;9.98;82.76
81909;BME280;71372;43.514;1.512;2023-11-21T05:36:04;100104.47;;;9.97;82.66
81909;BME280;71372;43.514;1.512;2023-11-21T05:38:30;100107.63;;;10.05;82.45
81909;BME280;71372;43.514;1.512;2023-11-21T05:40:55;100110.25;;;10.07;82.44
81909;BME280;71372;43.514;1.512;2023-11-21T05:43:21;100110.19;;;10.08;82.61
81909;BME280;71372;43.514;1.512;2023-11-21T05:45:47;100106.69;;;10.06;82.65
81909;BME280;71372;43.514;1.512;2023-11-21T05:48:13;100095.00;;;10.10;82.31
81909;BME280;71372;43.514;1.512;2023-11-21T05:50:39;100095.09;;;10.09;82.72
81909;BME280;71372;43.514;1.512;2023-11-21T05:53:05;100097.81;;;10.07;82.82
81909;BME280;71372;43.514;1.512;2023-11-21T05:55:31;100096.72;;;10.11;82.30
81909;BME280;71372;43.514;1.512;2023-11-21T05:57:57;100093.00;;;10.15;82.54
81909;BME280;71372;43.514;1.512;2023-11-21T06:00:23;100101.75;;;10.17;82.48
81909;BME280;71372;43.514;1.512;2023-11-21T06:02:52;100102.47;;;10.22;82.34
81909;BME280;71372;43.514;1.512;2023-11-21T06:05:20;100103.19;;;10.26;82.24
81909;BME280;71372;43.514;1.512;2023-11-21T06:07:46;100106.53;;;10.30;82.10
81909;BME280;71372;43.514;1.512;2023-11-21T06:10:12;100103.25;;;10.24;82.02
81909;BME280;71372;43.514;1.512;2023-11-21T06:12:40;100103.97;;;10.28;82.35
81909;BME280;71372;43.514;1.512;2023-11-21T06:15:09;100097.06;;;10.24;82.35
81909;BME280;71372;43.514;1.512;2023-11-21T06:17:35;100098.44;;;10.33;82.67
81909;BME280;71372;43.514;1.512;2023-11-21T06:20:09;100096.81;;;10.30;82.74
81909;BME280;71372;43.514;1.512;2023-11-21T06:22:37;100099.38;;;10.32;82.81
81909;BME280;71372;43.514;1.512;2023-11-21T06:25:05;100099.31;;;10.33;82.48
81909;BME280;71372;43.514;1.512;2023-11-21T06:27:39;100100.88;;;10.37;82.39
81909;BME280;71372;43.514;1.512;2023-11-21T06:30:06;100099.88;;;10.40;82.66
81909;BME280;71372;43.514;1.512;2023-11-21T06:32:36;100098.03;;;10.42;82.30
81909;BME280;71372;43.514;1.512;2023-11-21T06:35:03;100096.41;;;10.38;82.92
81909;BME280;71372;43.514;1.512;2023-11-21T06:37:30;100108.78;;;10.39;83.05
81909;BME280;71372;43.514;1.512;2023-11-21T06:39:58;100102.53;;;10.40;82.72
81909;BME280;71372;43.514;1.512;2023-11-21T06:42:27;100097.09;;;10.43;82.78
81909;BME280;71372;43.514;1.512;2023-11-21T06:44:54;100102.19;;;10.47;83.09
81909;BME280;71372;43.514;1.512;2023-11-21T06:47:23;100094.91;;;10.51;82.99
81909;BME280;71372;43.514;1.512;2023-11-21T06:49:53;100107.59;;;10.46;83.03
81909;BME280;71372;43.514;1.512;2023-11-21T06:52:19;100096.00;;;10.47;82.77
81909;BME280;71372;43.514;1.512;2023-11-21T06:54:45;100113.41;;;10.54;82.79
81909;BME280;71372;43.514;1.512;2023-11-21T06:57:13;100118.75;;;10.54;83.43
81909;BME280;71372;43.514;1.512;2023-11-21T06:59:39;100109.81;;;10.55;83.20
81909;BME280;71372;43.514;1.512;2023-11-21T07:02:05;100102.53;;;10.59;83.31
81909;BME280;71372;43.514;1.512;2023-11-21T07:04:38;100116.88;;;10.56;83.13
81909;BME280;71372;43.514;1.512;2023-11-21T07:07:04;100108.56;;;10.62;83.02
81909;BME280;71372;43.514;1.512;2023-11-21T07:09:32;100110.44;;;10.60;83.10
81909;BME280;71372;43.514;1.512;2023-11-21T07:11:58;100111.16;;;10.64;82.86
81909;BME280;71372;43.514;1.512;2023-11-21T07:14:24;100113.03;;;10.62;83.43
81909;BME280;71372;43.514;1.512;2023-11-21T07:16:50;100111.09;;;10.65;82.93
81909;BME280;71372;43.514;1.512;2023-11-21T07:19:18;100117.56;;;10.60;83.37
81909;BME280;71372;43.514;1.512;2023-11-21T07:21:43;100115.00;;;10.58;83.79
81909;BME280;71372;43.514;1.512;2023-11-21T07:24:09;100116.56;;;10.62;83.69
81909;BME280;71372;43.514;1.512;2023-11-21T07:26:37;100116.41;;;10.65;83.85
81909;BME280;71372;43.514;1.512;2023-11-21T07:29:03;100117.22;;;10.67;83.79
81909;BME280;71372;43.514;1.512;2023-11-21T07:31:29;100125.06;;;10.70;83.88
81909;BME280;71372;43.514;1.512;2023-11-21T07:33:56;100118.88;;;10.70;83.76
81909;BME280;71372;43.514;1.512;2023-11-21T07:36:25;100121.59;;;10.68;83.69
81909;BME280;71372;43.514;1.512;2023-11-21T07:38:51;100119.66;;;10.72;83.53
81909;BME280;71372;43.514;1.512;2023-11-21T07:41:18;100129.09;;;10.79;83.51
81909;BME280;71372;43.514;1.512;2023-11-21T07:43:45;100128.06;;;10.81;83.73
81909;BME280;71372;43.514;1.512;2023-11-21T07:46:11;100129.63;;;10.86;83.94
81909;BME280;71372;43.514;1.512;2023-11-21T07:48:41;100137.34;;;10.92;83.59
81909;BME280;71372;43.514;1.512;2023-11-21T07:51:11;100139.84;;;10.95;83.55
81909;BME280;71372;43.514;1.512;2023-11-21T07:53:38;100149.56;;;10.96;83.55
81909;BME280;71372;43.514;1.512;2023-11-21T07:56:06;100145.69;;;11.03;83.23
81909;BME280;71372;43.514;1.512;2023-11-21T07:58:34;100152.59;;;11.07;83.23
81909;BME280;71372;43.514;1.512;2023-11-21T08:01:01;100150.63;;;11.10;83.39
81909;BME280;71372;43.514;1.512;2023-11-21T08:03:28;100156.09;;;11.07;83.60
81909;BME280;71372;43.514;1.512;2023-11-21T08:05:58;100158.19;;;11.01;83.78
81909;BME280;71372;43.514;1.512;2023-11-21T08:08:25;100167.47;;;11.11;83.55
81909;BME280;71372;43.514;1.512;2023-11-21T08:10:52;100167.78;;;11.05;83.79
81909;BME280;71372;43.514;1.512;2023-11-21T08:13:26;100160.84;;;11.01;84.07
81909;BME280;71372;43.514;1.512;2023-11-21T08:15:56;100164.25;;;11.04;83.87
81909;BME280;71372;43.514;1.512;2023-11-21T08:18:23;100164.03;;;11.09;83.74
81909;BME280;71372;43.514;1.512;2023-11-21T08:20:50;100162.13;;;11.11;83.88
81909;BME280;71372;43.514;1.512;2023-11-21T08:23:16;100171.50;;;11.20;83.86
81909;BME280;71372;43.514;1.512;2023-11-21T08:25:46;100168.75;;;11.21;83.73
81909;BME280;71372;43.514;1.512;2023-11-21T08:28:12;100173.28;;;11.19;83.96
81909;BME280;71372;43.514;1.512;2023-11-21T08:30:42;100179.25;;;11.24;83.79
81909;BME280;71372;43.514;1.512;2023-11-21T08:33:08;100175.53;;;11.28;83.83
81909;BME280;71372;43.514;1.512;2023-11-21T08:35:35;100174.56;;;11.29;84.04
81909;BME280;71372;43.514;1.512;2023-11-21T08:38:02;100168.16;;;11.33;83.92
81909;BME280;71372;43.514;1.512;2023-11-21T08:40:28;100173.97;;;11.41;83.95
81909;BME280;71372;43.514;1.512;2023-11-21T08:42:54;100170.06;;;11.49;83.87
81909;BME280;71372;43.514;1.512;2023-11-21T08:45:21;100172.56;;;11.52;83.78
81909;BME280;71372;43.514;1.512;2023-11-21T08:47:48;100162.69;;;11.54;84.04
81909;BME280;71372;43.514;1.512;2023-11-21T08:50:14;100166.72;;;11.62;83.86
81909;BME280;71372;43.514;1.512;2023-11-21T08:52:41;100162.38;;;11.77;83.77
81909;BME280;71372;43.514;1.512;2023-11-21T08:55:08;100165.88;;;11.79;83.76
81909;BME280;71372;43.514;1.512;2023-11-21T08:57:37;100163.03;;;11.82;83.64
81909;BME280;71372;43.514;1.512;2023-11-21T09:00:04;100163.03;;;11.82;83.55
81909;BME280;71372;43.514;1.512;2023-11-21T09:02:33;100165.56;;;11.85;83.40
81909;BME280;71372;43.514;1.512;2023-11-21T09:05:00;100170.09;;;11.83;83.56
81909;BME280;71372;43.514;1.512;2023-11-21T09:07:29;100165.41;;;11.88;83.50
81909;BME280;71372;43.514;1.512;2023-11-21T09:09:55;100162.19;;;11.99;83.24
81909;BME280;71372;43.514;1.512;2023-11-21T09:12:21;100166.31;;;12.05;83.20
81909;BME280;71372;43.514;1.512;2023-11-21T09:14:47;100170.19;;;11.99;83.19
81909;BME280;71372;43.514;1.512;2023-11-21T09:17:13;100173.53;;;12.03;83.18
81909;BME280;71372;43.514;1.512;2023-11-21T09:19:40;100169.16;;;12.02;83.52
81909;BME280;71372;43.514;1.512;2023-11-21T09:22:07;100172.13;;;11.95;83.50
81909;BME280;71372;43.514;1.512;2023-11-21T09:24:33;100170.34;;;11.96;83.55
81909;BME280;71372;43.514;1.512;2023-11-21T09:26:59;100169.19;;;11.84;83.61
81909;BME280;71372;43.514;1.512;2023-11-21T09:29:28;100171.34;;;11.93;83.66
81909;BME280;71372;43.514;1.512;2023-11-21T09:31:55;100172.13;;;11.95;83.44
81909;BME280;71372;43.514;1.512;2023-11-21T09:34:22;100184.59;;;11.95;83.64
81909;BME280;71372;43.514;1.512;2023-11-21T09:36:48;100180.94;;;11.97;83.33
81909;BME280;71372;43.514;1.512;2023-11-21T09:39:15;100180.38;;;11.91;83.56
81909;BME280;71372;43.514;1.512;2023-11-21T09:44:18;100182.09;;;11.92;83.92
81909;BME280;71372;43.514;1.512;2023-11-21T09:46:47;100180.22;;;11.94;83.57
81909;BME280;71372;43.514;1.512;2023-11-21T09:49:18;100187.44;;;11.92;83.59
81909;BME280;71372;43.514;1.512;2023-11-21T09:51:50;100187.19;;;11.79;84.08
81909;BME280;71372;43.514;1.512;2023-11-21T09:54:19;100182.88;;;11.77;84.25
81909;BME280;71372;43.514;1.512;2023-11-21T09:56:47;100193.31;;;11.81;83.92
81909;BME280;71372;43.514;1.512;2023-11-21T09:59:14;100192.28;;;11.84;83.64
81909;BME280;71372;43.514;1.512;2023-11-21T10:01:42;100196.63;;;11.86;83.79
81909;BME280;71372;43.514;1.512;2023-11-21T10:04:09;100193.09;;;11.86;83.59
81909;BME280;71372;43.514;1.512;2023-11-21T10:06:40;100194.09;;;11.83;84.04
81909;BME280;71372;43.514;1.512;2023-11-21T10:09:14;100198.09;;;11.92;83.79
81909;BME280;71372;43.514;1.512;2023-11-21T10:11:41;100192.38;;;11.99;83.63
81909;BME280;71372;43.514;1.512;2023-11-21T10:14:11;100194.03;;;12.02;83.55
81909;BME280;71372;43.514;1.512;2023-11-21T10:16:41;100195.59;;;12.06;83.44
81909;BME280;71372;43.514;1.512;2023-11-21T10:19:10;100198.88;;;12.11;83.57
81909;BME280;71372;43.514;1.512;2023-11-21T10:21:39;100201.09;;;12.20;83.25
81909;BME280;71372;43.514;1.512;2023-11-21T10:24:05;100201.53;;;12.28;83.51
81909;BME280;71372;43.514;1.512;2023-11-21T10:26:32;100201.28;;;12.33;82.91
81909;BME280;71372;43.514;1.512;2023-11-21T10:28:59;100198.28;;;12.39;83.13
81909;BME280;71372;43.514;1.512;2023-11-21T10:31:32;100196.84;;;12.49;83.20
81909;BME280;71372;43.514;1.512;2023-11-21T10:34:16;100191.03;;;12.58;82.52
81909;BME280;71372;43.514;1.512;2023-11-21T10:36:43;100183.97;;;12.73;82.97
81909;BME280;71372;43.514;1.512;2023-11-21T10:39:09;100185.09;;;12.85;82.65
81909;BME280;71372;43.514;1.512;2023-11-21T10:41:38;100184.59;;;12.94;82.68
81909;BME280;71372;43.514;1.512;2023-11-21T10:44:05;100185.97;;;13.01;82.40
81909;BME280;71372;43.514;1.512;2023-11-21T10:46:35;100180.09;;;13.10;81.63
81909;BME280;71372;43.514;1.512;2023-11-21T10:49:00;100186.13;;;13.14;81.65
81909;BME280;71372;43.514;1.512;2023-11-21T10:51:27;100189.00;;;13.11;81.91
81909;BME280;71372;43.514;1.512;2023-11-21T10:53:54;100189.59;;;13.00;82.04
81909;BME280;71372;43.514;1.512;2023-11-21T10:56:23;100184.34;;;12.99;81.69
81909;BME280;71372;43.514;1.512;2023-11-21T10:58:49;100186.50;;;12.92;81.55
81909;BME280;71372;43.514;1.512;2023-11-21T11:01:19;100180.44;;;12.88;81.97
81909;BME280;71372;43.514;1.512;2023-11-21T11:03:47;100170.03;;;12.84;82.02
81909;BME280;71372;43.514;1.512;2023-11-21T11:06:14;100176.91;;;12.88;81.65
81909;BME280;71372;43.514;1.512;2023-11-21T11:08:41;100174.59;;;12.82;81.88
81909;BME280;71372;43.514;1.512;2023-11-21T11:11:07;100171.16;;;12.80;81.76
81909;BME280;71372;43.514;1.512;2023-11-21T11:13:33;100167.78;;;12.76;81.90
81909;BME280;71372;43.514;1.512;2023-11-21T11:16:00;100171.31;;;12.77;81.78
81909;BME280;71372;43.514;1.512;2023-11-21T11:18:28;100177.44;;;12.79;82.08
81909;BME280;71372;43.514;1.512;2023-11-21T11:21:05;100177.44;;;12.79;81.46
81909;BME280;71372;43.514;1.512;2023-11-21T11:24:05;100172.25;;;12.76;81.47
81909;BME280;71372;43.514;1.512;2023-11-21T11:26:46;100175.28;;;12.70;82.12
81909;BME280;71372;43.514;1.512;2023-11-21T11:32:03;100166.81;;;12.62;82.32
81909;BME280;71372;43.514;1.512;2023-11-21T11:34:36;100180.00;;;12.65;81.94
81909;BME280;71372;43.514;1.512;2023-11-21T11:37:06;100167.59;;;12.64;82.29
81909;BME280;71372;43.514;1.512;2023-11-21T11:39:37;100168.72;;;12.59;82.00
81909;BME280;71372;43.514;1.512;2023-11-21T11:42:06;100176.91;;;12.56;82.17
81909;BME280;71372;43.514;1.512;2023-11-21T11:47:15;100162.19;;;12.32;83.18
81909;BME280;71372;43.514;1.512;2023-11-21T11:50:01;100161.78;;;12.40;82.88
81909;BME280;71372;43.514;1.512;2023-11-21T11:52:36;100158.53;;;12.50;83.07
81909;BME280;71372;43.514;1.512;2023-11-21T11:55:05;100156.31;;;12.58;82.88
81909;BME280;71372;43.514;1.512;2023-11-21T11:57:31;100144.16;;;12.69;83.10
81909;BME280;71372;43.514;1.512;2023-11-21T12:00:20;100148.22;;;12.76;82.53
81909;BME280;71372;43.514;1.512;2023-11-21T12:02:55;100153.63;;;12.90;82.60
81909;BME280;71372;43.514;1.512;2023-11-21T12:05:26;100152.34;;;12.97;82.47
81909;BME280;71372;43.514;1.512;2023-11-21T12:07:59;100144.78;;;13.05;82.38
81909;BME280;71372;43.514;1.512;2023-11-21T12:10:32;100147.44;;;13.05;82.16
81909;BME280;71372;43.514;1.512;2023-11-21T12:13:09;100147.00;;;13.13;81.68
81909;BME280;71372;43.514;1.512;2023-11-21T12:15:36;100146.41;;;13.24;81.59
81909;BME280;71372;43.514;1.512;2023-11-21T12:18:03;100150.81;;;13.25;81.35
81909;BME280;71372;43.514;1.512;2023-11-21T12:20:30;100144.16;;;13.32;81.45
81909;BME280;71372;43.514;1.512;2023-11-21T12:22:58;100144.84;;;13.35;81.13
81909;BME280;71372;43.514;1.512;2023-11-21T12:25:26;100147.66;;;13.48;81.26
81909;BME280;71372;43.514;1.512;2023-11-21T12:27:56;100157.41;;;13.49;81.16
81909;BME280;71372;43.514;1.512;2023-11-21T12:30:23;100147.66;;;13.48;80.82
81909;BME280;71372;43.514;1.512;2023-11-21T12:32:49;100145.94;;;13.47;80.62
81909;BME280;71372;43.514;1.512;2023-11-21T12:35:20;100146.34;;;13.55;80.70
81909;BME280;71372;43.514;1.512;2023-11-21T12:37:47;100146.25;;;13.57;80.52
81909;BME280;71372;43.514;1.512;2023-11-21T12:40:15;100143.59;;;13.57;80.62
81909;BME280;71372;43.514;1.512;2023-11-21T12:42:44;100140.91;;;13.57;80.04
81909;BME280;71372;43.514;1.512;2023-11-21T12:47:43;100153.81;;;13.50;80.16
81909;BME280;71372;43.514;1.512;2023-11-21T12:50:10;100154.75;;;13.33;80.39
81909;BME280;71372;43.514;1.512;2023-11-21T12:52:44;100160.81;;;13.21;80.51
81909;BME280;71372;43.514;1.512;2023-11-21T12:55:17;100156.53;;;13.19;80.74
81909;BME280;71372;43.514;1.512;2023-11-21T12:57:44;100161.78;;;13.20;81.03
81909;BME280;71372;43.514;1.512;2023-11-21T13:00:12;100161.91;;;13.17;80.92
81909;BME280;71372;43.514;1.512;2023-11-21T13:02:51;100163.59;;;13.20;80.84